createdAt,value
2023-02-28T00:00:16.302Z,7.70
2023-02-28T00:05:12.764Z,7.70
2023-02-28T00:10:11.280Z,8.77
2023-02-28T00:15:07.418Z,7.63
2023-02-28T00:20:05.688Z,9.33
2023-02-28T00:24:59.058Z,8.33
2023-02-28T00:29:55.033Z,7.07
2023-02-28T00:34:48.410Z,8.07
2023-02-28T00:39:42.520Z,9.10
2023-02-28T00:44:36.225Z,7.00
2023-02-28T00:49:30.905Z,8.70
2023-02-28T00:54:24.865Z,8.03
2023-02-28T00:59:20.253Z,7.63
2023-02-28T01:04:13.878Z,6.77
2023-02-28T01:09:09.826Z,9.83
2023-02-28T01:14:03.654Z,6.90
2023-02-28T01:18:57.569Z,7.33
2023-02-28T01:23:52.293Z,8.63
2023-02-28T01:28:47.561Z,7.20
2023-02-28T01:33:41.722Z,8.27
2023-02-28T01:38:36.743Z,6.80
2023-02-28T01:43:32.651Z,8.67
2023-02-28T01:48:32.630Z,9.40
2023-02-28T01:53:33.841Z,8.73
2023-02-28T01:58:27.455Z,6.80
2023-02-28T02:03:23.085Z,6.63
2023-02-28T02:08:22.212Z,7.70
2023-02-28T02:13:57.253Z,8.87
2023-02-28T02:18:56.371Z,9.07
2023-02-28T02:24:42.146Z,6.63
2023-02-28T02:30:31.941Z,6.90
2023-02-28T02:35:32.133Z,7.57
2023-02-28T02:40:32.402Z,6.43
2023-02-28T02:45:36.809Z,6.63
2023-02-28T02:50:39.504Z,6.13
2023-02-28T02:55:39.204Z,7.07
2023-02-28T03:00:39.871Z,6.63
2023-02-28T03:05:44.067Z,6.87
2023-02-28T03:10:41.305Z,6.77
2023-02-28T03:15:50.037Z,6.40
2023-02-28T03:21:00.165Z,8.20
2023-02-28T03:26:04.267Z,7.07
2023-02-28T03:31:05.995Z,6.67
2023-02-28T03:36:06.869Z,6.93
2023-02-28T03:41:07.711Z,6.17
2023-02-28T03:46:07.031Z,6.80
2023-02-28T03:51:05.129Z,6.10
2023-02-28T03:56:03.796Z,7.00
2023-02-28T04:01:09.114Z,6.03
2023-02-28T04:06:04.810Z,9.03
2023-02-28T04:11:05.574Z,6.70
2023-02-28T04:15:58.915Z,6.57
2023-02-28T04:20:52.210Z,6.30
2023-02-28T04:25:46.860Z,6.70
2023-02-28T04:30:41.223Z,6.60
2023-02-28T04:35:34.555Z,7.60
2023-02-28T04:40:27.861Z,7.47
2023-02-28T04:45:22.952Z,7.03
2023-02-28T04:50:16.782Z,7.30
2023-02-28T04:55:11.445Z,6.73
2023-02-28T05:00:12.567Z,8.47
2023-02-28T05:05:08.176Z,8.27
2023-02-28T05:10:01.571Z,8.40
2023-02-28T05:14:54.849Z,7.93
2023-02-28T05:19:48.107Z,7.20
2023-02-28T05:24:43.711Z,7.83
2023-02-28T05:29:44.417Z,10.17
2023-02-28T05:34:38.998Z,7.20
2023-02-28T05:39:32.267Z,9.77
2023-02-28T05:44:27.075Z,7.50
2023-02-28T05:49:24.722Z,8.97
2023-02-28T05:54:18.002Z,8.90
2023-02-28T05:59:11.395Z,8.97
2023-02-28T06:04:09.877Z,8.57
2023-02-28T06:09:06.891Z,9.00
2023-02-28T06:14:02.217Z,8.73
2023-02-28T06:18:57.000Z,8.93
2023-02-28T06:23:51.715Z,11.10
2023-02-28T06:28:45.065Z,10.00
2023-02-28T06:33:39.729Z,8.67
2023-02-28T06:38:33.323Z,8.50
2023-02-28T06:43:31.786Z,8.50
2023-02-28T06:48:25.483Z,7.60
2023-02-28T06:53:18.911Z,9.20
2023-02-28T06:58:16.728Z,11.17
2023-02-28T07:03:11.783Z,9.67
2023-02-28T07:08:06.913Z,10.07
2023-02-28T07:13:00.469Z,10.97
2023-02-28T07:17:53.827Z,10.53
2023-02-28T07:22:56.094Z,8.97
2023-02-28T07:27:49.551Z,9.73
2023-02-28T07:32:45.051Z,11.67
2023-02-28T07:37:38.571Z,15.03
2023-02-28T07:42:33.268Z,9.23
2023-02-28T07:47:27.186Z,9.63
2023-02-28T07:52:20.562Z,8.57
2023-02-28T07:57:13.938Z,8.93
2023-02-28T08:02:08.688Z,9.10
2023-02-28T08:07:02.069Z,10.23
2023-02-28T08:11:55.342Z,11.70
2023-02-28T08:16:48.679Z,11.20
2023-02-28T08:21:43.320Z,10.53
2023-02-28T08:26:36.564Z,8.97
2023-02-28T08:31:30.107Z,9.97
2023-02-28T08:36:23.674Z,8.80
2023-02-28T08:41:18.392Z,9.97
2023-02-28T08:46:15.328Z,8.30
2023-02-28T08:51:11.506Z,12.43
2023-02-28T08:56:07.912Z,9.83
2023-02-28T09:01:03.170Z,10.47
2023-02-28T09:06:02.475Z,9.43
2023-02-28T09:10:58.705Z,9.43
2023-02-28T09:15:52.535Z,15.23
2023-02-28T09:20:47.530Z,9.83
2023-02-28T09:25:48.262Z,11.27
2023-02-28T09:30:41.569Z,11.47
2023-02-28T09:35:34.909Z,9.30
2023-02-28T09:40:29.635Z,11.20
2023-02-28T09:45:29.748Z,10.10
2023-02-28T09:50:35.744Z,12.13
2023-02-28T09:55:46.348Z,10.87
2023-02-28T10:00:42.761Z,16.80
2023-02-28T10:05:44.395Z,9.83
2023-02-28T10:10:43.482Z,11.20
2023-02-28T10:15:38.486Z,10.60
2023-02-28T10:20:37.888Z,10.80
2023-02-28T10:25:31.949Z,11.43
2023-02-28T10:30:27.123Z,11.60
2023-02-28T10:35:23.759Z,12.00
2023-02-28T10:40:33.322Z,12.23
2023-02-28T10:45:30.552Z,11.80
2023-02-28T10:50:41.302Z,11.80
2023-02-28T10:55:34.631Z,10.63
2023-02-28T11:00:37.363Z,13.87
2023-02-28T11:05:34.843Z,11.87
2023-02-28T11:10:33.336Z,15.40
2023-02-28T11:15:32.142Z,11.77
2023-02-28T11:20:30.171Z,10.57
2023-02-28T11:25:29.001Z,11.47
2023-02-28T11:30:45.667Z,12.13
2023-02-28T11:35:41.718Z,13.83
2023-02-28T11:40:48.875Z,12.60
2023-02-28T11:46:02.681Z,12.73
2023-02-28T11:51:14.973Z,14.00
2023-02-28T11:56:21.885Z,12.27
2023-02-28T12:01:49.720Z,13.33
2023-02-28T12:06:49.524Z,14.63
2023-02-28T12:11:55.596Z,13.90
2023-02-28T12:17:14.551Z,12.90
2023-02-28T12:22:44.673Z,13.33
2023-02-28T12:27:43.678Z,13.53
2023-02-28T12:32:43.486Z,21.23
2023-02-28T12:37:44.090Z,14.97
2023-02-28T12:42:44.690Z,15.50
2023-02-28T12:47:45.282Z,15.17
2023-02-28T12:52:55.597Z,16.10
2023-02-28T12:58:00.726Z,16.80
2023-02-28T13:03:50.312Z,19.87
2023-02-28T13:09:06.476Z,13.17
2023-02-28T13:14:03.918Z,16.77
2023-02-28T13:19:13.415Z,16.83
2023-02-28T13:24:11.405Z,17.47
2023-02-28T13:29:24.964Z,15.27
2023-02-28T13:34:18.817Z,20.33
2023-02-28T13:39:52.504Z,15.73
2023-02-28T13:45:24.912Z,18.23
2023-02-28T13:50:29.022Z,16.60
2023-02-28T13:55:39.702Z,14.53
2023-02-28T14:00:56.937Z,14.77
2023-02-28T14:06:12.765Z,16.67
2023-02-28T14:11:25.703Z,15.80
2023-02-28T14:16:25.060Z,16.87
2023-02-28T14:21:26.765Z,16.90
2023-02-28T14:26:48.949Z,23.00
2023-02-28T14:31:53.306Z,21.10
2023-02-28T14:36:48.047Z,18.13
2023-02-28T14:41:45.075Z,16.63
2023-02-28T14:46:42.624Z,18.27
2023-02-28T14:51:37.048Z,21.23
2023-02-28T14:56:39.103Z,17.93
2023-02-28T15:01:34.690Z,18.90
2023-02-28T15:06:30.280Z,22.17
2023-02-28T15:11:24.312Z,19.93
2023-02-28T15:16:23.956Z,19.83
2023-02-28T15:21:22.913Z,18.57
2023-02-28T15:26:21.215Z,20.57
2023-02-28T15:31:26.074Z,20.20
2023-02-28T15:36:24.295Z,19.60
2023-02-28T15:41:28.708Z,16.73
2023-02-28T15:46:22.309Z,18.80
2023-02-28T15:51:24.929Z,18.27
2023-02-28T15:56:27.297Z,20.23
2023-02-28T16:01:26.924Z,19.67
2023-02-28T16:06:44.227Z,22.13
2023-02-28T16:11:42.811Z,21.63
2023-02-28T16:16:36.608Z,20.60
2023-02-28T16:21:33.967Z,20.00
2023-02-28T16:26:29.334Z,18.17
2023-02-28T16:31:23.223Z,21.37
2023-02-28T16:36:20.072Z,19.90
2023-02-28T16:41:19.910Z,20.03
2023-02-28T16:46:14.946Z,19.00
2023-02-28T16:51:08.425Z,19.37
2023-02-28T16:56:03.257Z,19.73
2023-02-28T17:00:56.623Z,19.10
2023-02-28T17:05:51.397Z,18.93
2023-02-28T17:10:45.526Z,20.17
2023-02-28T17:15:40.221Z,20.90
2023-02-28T17:20:33.887Z,21.50
2023-02-28T17:25:28.713Z,20.83
2023-02-28T17:30:25.401Z,22.00
2023-02-28T17:35:19.166Z,18.23
2023-02-28T17:40:18.513Z,21.07
2023-02-28T17:45:14.140Z,19.53
2023-02-28T17:50:08.857Z,19.97
2023-02-28T17:55:02.133Z,20.57
2023-02-28T17:59:55.484Z,18.63
2023-02-28T18:04:50.216Z,17.97
2023-02-28T18:09:43.546Z,17.80
2023-02-28T18:14:36.854Z,21.80
2023-02-28T18:26:04.024Z,19.47
2023-02-28T18:30:57.302Z,20.73
2023-02-28T18:35:57.859Z,23.10
2023-02-28T18:40:55.067Z,20.13
2023-02-28T18:45:49.862Z,22.70
2023-02-28T18:50:43.192Z,19.13
2023-02-28T18:55:36.646Z,20.67
2023-02-28T19:00:30.035Z,20.20
2023-02-28T19:05:24.856Z,22.40
2023-02-28T19:10:18.814Z,21.03
2023-02-28T19:15:13.434Z,23.03
2023-02-28T19:20:08.656Z,21.67
2023-02-28T19:25:03.352Z,23.37
2023-02-28T19:29:59.134Z,24.93
2023-02-28T19:34:55.385Z,25.57
2023-02-28T19:39:49.919Z,24.13
2023-02-28T19:44:51.508Z,24.70
2023-02-28T19:49:44.983Z,23.33
2023-02-28T19:54:59.888Z,23.83
2023-02-28T19:59:57.383Z,24.87
2023-02-28T20:04:58.703Z,24.10
2023-02-28T20:09:55.910Z,24.30
2023-02-28T20:14:49.534Z,23.57
2023-02-28T20:19:47.668Z,24.43
2023-02-28T20:24:41.319Z,25.27
2023-02-28T20:29:36.218Z,24.73
2023-02-28T20:34:29.654Z,25.00
2023-02-28T20:39:25.076Z,25.13
2023-02-28T20:44:19.442Z,25.10
2023-02-28T20:49:13.020Z,26.90
2023-02-28T20:54:07.156Z,27.03
2023-02-28T20:59:02.021Z,26.37
2023-02-28T21:03:57.484Z,27.03
2023-02-28T21:08:51.562Z,24.13
2023-02-28T21:13:46.949Z,26.77
2023-02-28T21:18:42.736Z,28.00
2023-02-28T21:23:36.272Z,23.07
2023-02-28T21:28:29.697Z,25.27
2023-02-28T21:33:23.071Z,25.83
2023-02-28T21:38:18.147Z,26.13
2023-02-28T21:43:11.503Z,28.10
2023-02-28T21:48:04.906Z,25.43
2023-02-28T21:52:58.260Z,26.33
2023-02-28T21:57:53.672Z,27.60
2023-02-28T22:02:47.279Z,30.43
2023-02-28T22:07:42.140Z,24.80
2023-02-28T22:12:35.439Z,24.97
2023-02-28T22:17:30.165Z,26.97
2023-02-28T22:22:23.441Z,24.07
2023-02-28T22:27:16.768Z,27.43
2023-02-28T22:32:11.407Z,25.83
2023-02-28T22:37:06.160Z,25.70
2023-02-28T22:42:00.548Z,26.23
2023-02-28T22:46:55.649Z,27.47
2023-02-28T22:51:48.935Z,26.13
2023-02-28T22:56:43.703Z,25.13
2023-02-28T23:01:37.085Z,25.90
2023-02-28T23:06:33.798Z,25.80
2023-02-28T23:11:32.374Z,27.93
2023-02-28T23:16:30.659Z,28.17
2023-02-28T23:21:24.843Z,26.77
2023-02-28T23:26:18.215Z,26.17
2023-02-28T23:31:11.541Z,27.00
2023-02-28T23:36:15.985Z,24.17
2023-02-28T23:41:10.656Z,24.17
2023-02-28T23:46:04.932Z,25.33
2023-02-28T23:51:02.850Z,25.10
2023-02-28T23:55:57.589Z,24.93
